Time;durP1;ratioP1;P1;durP2;ratioP2;P2;SDS_P1;SDS_P2;PMS_P1;PMS_P2;Temp;Humidity;BMP_temperature;BMP_pressure;BME280_temperature;BME280_humidity;BME280_pressure;Samples;Min_cycle;Max_cycle;Signal;HPM_P1;HPM_P2
2024/01/19 00:02:16;;;;;;;7.30;2.42;;;;;;;;;;4987591;28;20534;-69
2024/01/19 00:04:42;;;;;;;5.18;2.05;;;;;;;;;;4982177;28;20049;-69
2024/01/19 00:07:08;;;;;;;5.75;2.58;;;;;;;;;;5016363;28;20045;-69
2024/01/19 00:09:34;;;;;;;8.15;2.65;;;;;;;;;;4986032;28;20100;-69
2024/01/19 00:12:01;;;;;;;11.13;2.70;;;;;;;;;;5020510;28;20054;-70
2024/01/19 00:14:30;;;;;;;4.93;2.20;;;;;;;;;;4989716;28;20522;-69
2024/01/19 00:16:56;;;;;;;10.18;2.92;;;;;;;;;;4990416;28;20561;-69
2024/01/19 00:19:22;;;;;;;8.02;2.83;;;;;;;;;;4987324;28;20042;-69
2024/01/19 00:21:49;;;;;;;9.40;2.30;;;;;;;;;;4987590;28;20046;-69
2024/01/19 00:24:15;;;;;;;9.63;2.33;;;;;;;;;;4996370;28;20089;-69
2024/01/19 00:26:46;;;;;;;8.73;2.13;;;;;;;;;;4991887;28;20141;-69
2024/01/19 00:29:12;;;;;;;7.45;2.60;;;;;;;;;;4991550;28;20054;-69
2024/01/19 00:31:38;;;;;;;8.75;2.50;;;;;;;;;;4991536;28;20081;-70
2024/01/19 00:34:04;;;;;;;6.85;2.70;;;;;;;;;;4990765;28;20050;-70
2024/01/19 00:36:30;;;;;;;13.73;3.03;;;;;;;;;;4991971;28;20092;-69
2024/01/19 00:38:57;;;;;;;7.47;2.42;;;;;;;;;;4990847;28;20050;-69
2024/01/19 00:41:23;;;;;;;8.13;2.30;;;;;;;;;;4994360;28;20042;-69
2024/01/19 00:43:49;;;;;;;7.25;2.13;;;;;;;;;;4991700;28;20525;-69
2024/01/19 00:46:15;;;;;;;9.68;2.45;;;;;;;;;;4993483;28;20056;-70
2024/01/19 00:48:41;;;;;;;11.02;2.75;;;;;;;;;;5025491;28;20049;-70
2024/01/19 00:51:07;;;;;;;10.10;2.22;;;;;;;;;;5026041;28;20474;-69
2024/01/19 00:53:33;;;;;;;7.85;2.20;;;;;;;;;;4992782;28;20042;-69
2024/01/19 00:55:59;;;;;;;8.57;2.67;;;;;;;;;;4989447;28;20030;-70
2024/01/19 00:58:25;;;;;;;8.93;2.42;;;;;;;;;;4993151;28;20054;-69
2024/01/19 01:00:51;;;;;;;9.00;2.75;;;;;;;;;;4991263;28;20046;-70
2024/01/19 01:03:23;;;;;;;7.10;2.40;;;;;;;;;;4990878;28;20163;-70
2024/01/19 01:05:50;;;;;;;8.82;2.40;;;;;;;;;;4987681;28;20108;-70
2024/01/19 01:08:16;;;;;;;10.35;2.15;;;;;;;;;;4990751;28;20050;-70
2024/01/19 01:10:43;;;;;;;6.28;2.03;;;;;;;;;;4989274;28;20058;-70
2024/01/19 01:13:09;;;;;;;6.90;2.63;;;;;;;;;;4990463;28;20809;-70
2024/01/19 01:15:35;;;;;;;8.25;2.78;;;;;;;;;;4988863;28;20597;-69
2024/01/19 01:18:01;;;;;;;9.07;2.38;;;;;;;;;;4990861;28;20046;-69
2024/01/19 01:20:27;;;;;;;6.82;2.20;;;;;;;;;;4985505;28;20056;-69
2024/01/19 01:22:53;;;;;;;7.53;2.30;;;;;;;;;;4988159;28;20483;-70
2024/01/19 01:25:19;;;;;;;4.70;1.95;;;;;;;;;;5020156;28;20046;-70
2024/01/19 01:27:45;;;;;;;7.95;2.08;;;;;;;;;;4990143;28;20053;-69
2024/01/19 01:30:11;;;;;;;5.45;1.90;;;;;;;;;;4991986;28;20122;-70
2024/01/19 01:32:37;;;;;;;5.90;1.92;;;;;;;;;;4986043;28;20406;-69
2024/01/19 01:35:04;;;;;;;7.72;2.13;;;;;;;;;;4991559;28;20521;-69
2024/01/19 01:37:30;;;;;;;3.03;1.58;;;;;;;;;;4985460;28;20050;-69
2024/01/19 01:39:56;;;;;;;2.00;1.80;;;;;;;;;;4990259;28;20100;-69
2024/01/19 01:42:23;;;;;;;5.78;1.70;;;;;;;;;;4990783;28;20046;-69
2024/01/19 01:44:49;;;;;;;3.30;1.60;;;;;;;;;;4990896;28;20062;-69
2024/01/19 01:47:16;;;;;;;5.55;1.85;;;;;;;;;;4993885;28;20034;-69
2024/01/19 01:49:42;;;;;;;3.35;1.70;;;;;;;;;;4985646;28;20039;-69
2024/01/19 01:52:09;;;;;;;6.97;1.98;;;;;;;;;;4990336;28;20046;-69
2024/01/19 01:54:35;;;;;;;8.65;2.10;;;;;;;;;;4990057;28;20042;-69
2024/01/19 01:57:01;;;;;;;6.10;2.20;;;;;;;;;;4989652;28;20038;-69
2024/01/19 01:59:28;;;;;;;7.20;2.50;;;;;;;;;;4992528;28;20147;-69
2024/01/19 02:01:54;;;;;;;10.15;2.40;;;;;;;;;;4992946;28;20044;-69
2024/01/19 02:04:21;;;;;;;6.30;2.60;;;;;;;;;;4991845;28;20054;-69
2024/01/19 02:06:47;;;;;;;10.55;3.13;;;;;;;;;;4991068;28;20049;-69
2024/01/19 02:09:13;;;;;;;8.80;2.65;;;;;;;;;;4990451;28;20058;-69
2024/01/19 02:11:39;;;;;;;8.38;2.40;;;;;;;;;;4988787;28;20525;-69
2024/01/19 02:14:10;;;;;;;10.10;3.50;;;;;;;;;;4990534;28;20393;-69
2024/01/19 02:16:36;;;;;;;12.13;2.83;;;;;;;;;;4987617;28;20463;-69
2024/01/19 02:19:02;;;;;;;11.55;2.53;;;;;;;;;;4984007;28;20050;-69
2024/01/19 02:21:29;;;;;;;12.25;2.45;;;;;;;;;;4988093;28;20498;-69
2024/01/19 02:24:04;;;;;;;10.20;3.22;;;;;;;;;;4987155;28;20117;-69
2024/01/19 02:26:31;;;;;;;9.13;2.40;;;;;;;;;;4990328;28;20175;-69
2024/01/19 02:28:57;;;;;;;7.82;2.33;;;;;;;;;;4986563;28;20048;-70
2024/01/19 02:31:23;;;;;;;11.52;2.70;;;;;;;;;;4992065;28;20111;-70
2024/01/19 02:33:49;;;;;;;9.68;2.42;;;;;;;;;;5018784;28;20062;-69
2024/01/19 02:36:16;;;;;;;9.43;2.70;;;;;;;;;;4985537;28;20111;-69
2024/01/19 02:38:42;;;;;;;10.27;2.25;;;;;;;;;;4989195;28;20050;-69
2024/01/19 02:41:08;;;;;;;13.77;2.20;;;;;;;;;;4988212;28;20049;-69
2024/01/19 02:43:34;;;;;;;5.35;2.13;;;;;;;;;;4990764;28;20050;-69
2024/01/19 02:46:00;;;;;;;7.50;2.00;;;;;;;;;;4991918;28;20116;-69
2024/01/19 02:48:26;;;;;;;5.47;2.17;;;;;;;;;;4985468;28;20046;-69
2024/01/19 02:50:52;;;;;;;7.13;2.60;;;;;;;;;;4991540;28;20049;-69
2024/01/19 02:53:18;;;;;;;6.53;2.63;;;;;;;;;;4991990;28;20042;-69
2024/01/19 02:55:44;;;;;;;8.48;2.45;;;;;;;;;;4989012;28;20046;-69
2024/01/19 02:58:10;;;;;;;8.30;2.60;;;;;;;;;;4985520;28;20082;-69
2024/01/19 03:00:36;;;;;;;7.97;2.50;;;;;;;;;;4991445;28;20066;-69
2024/01/19 03:03:02;;;;;;;9.10;2.75;;;;;;;;;;4989265;28;20478;-69
2024/01/19 03:05:28;;;;;;;12.77;3.28;;;;;;;;;;4990708;28;20129;-69
2024/01/19 03:07:59;;;;;;;11.63;2.75;;;;;;;;;;4992280;28;20048;-70
2024/01/19 03:10:25;;;;;;;10.93;3.00;;;;;;;;;;4990264;28;20511;-70
2024/01/19 03:12:51;;;;;;;7.80;2.60;;;;;;;;;;4984991;28;20085;-69
2024/01/19 03:15:17;;;;;;;13.43;2.63;;;;;;;;;;4979332;28;20054;-70
2024/01/19 03:17:43;;;;;;;10.98;2.80;;;;;;;;;;4985319;28;20541;-69
2024/01/19 03:20:09;;;;;;;12.13;2.42;;;;;;;;;;4979757;28;22505;-69
2024/01/19 03:22:35;;;;;;;14.02;3.00;;;;;;;;;;4982013;28;20048;-69
2024/01/19 03:25:02;;;;;;;9.05;2.75;;;;;;;;;;4983480;28;20046;-69
2024/01/19 03:27:28;;;;;;;13.15;2.95;;;;;;;;;;4985684;28;20101;-69
2024/01/19 03:29:55;;;;;;;14.52;3.28;;;;;;;;;;4986014;28;20054;-69
2024/01/19 03:32:21;;;;;;;11.85;2.90;;;;;;;;;;4984101;28;20046;-69
2024/01/19 03:34:47;;;;;;;11.77;2.67;;;;;;;;;;4989445;28;20042;-69
2024/01/19 03:37:14;;;;;;;12.93;3.13;;;;;;;;;;4987397;28;20064;-69
2024/01/19 03:39:40;;;;;;;10.00;3.35;;;;;;;;;;4985851;28;20061;-69
2024/01/19 03:42:06;;;;;;;9.85;2.40;;;;;;;;;;4987422;28;20113;-69
2024/01/19 03:44:32;;;;;;;10.45;3.30;;;;;;;;;;4987605;28;20501;-69
2024/01/19 03:46:59;;;;;;;11.10;3.05;;;;;;;;;;4989168;28;20042;-70
2024/01/19 03:49:25;;;;;;;12.55;2.53;;;;;;;;;;5020410;28;20387;-70
2024/01/19 03:51:58;;;;;;;11.75;2.60;;;;;;;;;;5016833;28;20763;-69
2024/01/19 03:54:24;;;;;;;11.57;2.35;;;;;;;;;;4993096;28;20487;-69
2024/01/19 03:56:50;;;;;;;3.85;1.90;;;;;;;;;;4990304;28;20085;-69
2024/01/19 03:59:16;;;;;;;5.10;1.90;;;;;;;;;;4991438;28;20436;-69
2024/01/19 04:01:43;;;;;;;6.28;1.90;;;;;;;;;;4990591;28;20080;-69
2024/01/19 04:04:09;;;;;;;7.00;1.80;;;;;;;;;;5025740;28;20441;-69
2024/01/19 04:06:34;;;;;;;8.52;1.98;;;;;;;;;;4987189;28;20042;-69
2024/01/19 04:09:00;;;;;;;7.03;1.98;;;;;;;;;;4992125;28;20061;-69
2024/01/19 04:11:26;;;;;;;5.10;2.47;;;;;;;;;;4992509;28;20038;-69
2024/01/19 04:13:52;;;;;;;7.15;2.20;;;;;;;;;;5025561;28;20058;-69
2024/01/19 04:16:19;;;;;;;10.82;2.58;;;;;;;;;;5018144;28;20034;-68
2024/01/19 04:18:45;;;;;;;6.75;2.28;;;;;;;;;;4985681;28;20050;-69
2024/01/19 04:21:11;;;;;;;7.20;2.60;;;;;;;;;;4984981;28;20100;-70
2024/01/19 04:23:37;;;;;;;6.75;2.40;;;;;;;;;;4988615;28;20486;-69
2024/01/19 04:26:04;;;;;;;12.15;2.38;;;;;;;;;;4992036;28;20042;-69
2024/01/19 04:28:30;;;;;;;13.32;3.70;;;;;;;;;;4989295;28;20112;-69
2024/01/19 04:30:55;;;;;;;6.30;2.28;;;;;;;;;;4991636;28;20054;-69
2024/01/19 04:33:21;;;;;;;11.50;2.53;;;;;;;;;;5024133;28;20395;-69
2024/01/19 04:35:47;;;;;;;9.73;2.55;;;;;;;;;;4985541;28;20050;-69
2024/01/19 04:38:13;;;;;;;9.00;2.50;;;;;;;;;;4989269;28;20096;-69
2024/01/19 04:40:39;;;;;;;11.23;2.67;;;;;;;;;;4990865;28;20100;-69
2024/01/19 04:43:05;;;;;;;11.05;2.95;;;;;;;;;;4990208;28;20046;-69
2024/01/19 04:45:31;;;;;;;9.57;2.42;;;;;;;;;;4991200;28;20057;-70
2024/01/19 04:47:57;;;;;;;14.23;2.90;;;;;;;;;;4993601;28;20046;-69
2024/01/19 04:50:24;;;;;;;13.02;2.80;;;;;;;;;;4990405;28;20602;-69
2024/01/19 04:52:50;;;;;;;10.27;2.85;;;;;;;;;;4987230;28;20129;-69
2024/01/19 04:55:16;;;;;;;12.43;2.92;;;;;;;;;;4992190;28;20133;-69
2024/01/19 04:57:42;;;;;;;17.77;3.45;;;;;;;;;;4988753;28;20057;-69
2024/01/19 05:00:08;;;;;;;13.00;2.90;;;;;;;;;;4988245;28;20051;-70
2024/01/19 05:02:34;;;;;;;16.40;2.97;;;;;;;;;;5022963;28;20045;-69
2024/01/19 05:05:00;;;;;;;10.20;2.97;;;;;;;;;;4992542;28;20418;-69
2024/01/19 05:07:29;;;;;;;9.68;2.72;;;;;;;;;;4987801;28;20057;-69
2024/01/19 05:09:56;;;;;;;15.65;3.13;;;;;;;;;;4990573;28;20058;-68
2024/01/19 05:12:22;;;;;;;9.38;2.88;;;;;;;;;;4986790;28;20054;-68
2024/01/19 05:14:51;;;;;;;11.10;2.58;;;;;;;;;;4984836;28;20270;-68
2024/01/19 05:17:18;;;;;;;9.85;2.67;;;;;;;;;;4986284;28;20082;-68
2024/01/19 05:19:44;;;;;;;19.75;3.45;;;;;;;;;;4991773;28;20113;-68
2024/01/19 05:22:10;;;;;;;11.98;2.70;;;;;;;;;;4989685;28;20061;-69
2024/01/19 05:24:43;;;;;;;10.18;2.95;;;;;;;;;;4991810;28;20050;-68
2024/01/19 05:27:09;;;;;;;11.00;2.93;;;;;;;;;;4986767;28;20141;-68
2024/01/19 05:29:35;;;;;;;12.15;2.78;;;;;;;;;;4989586;28;20324;-68
2024/01/19 05:32:01;;;;;;;7.88;2.67;;;;;;;;;;5019668;28;20057;-68
2024/01/19 05:34:28;;;;;;;8.48;3.05;;;;;;;;;;4993778;28;20134;-69
2024/01/19 05:36:54;;;;;;;15.32;3.60;;;;;;;;;;4986129;28;20055;-68
2024/01/19 05:39:20;;;;;;;11.95;3.00;;;;;;;;;;4988988;28;20050;-68
2024/01/19 05:41:46;;;;;;;9.23;3.30;;;;;;;;;;4992856;28;20133;-68
2024/01/19 05:44:12;;;;;;;12.50;3.20;;;;;;;;;;4991199;28;20352;-68
2024/01/19 05:46:39;;;;;;;10.43;3.40;;;;;;;;;;4995219;28;20077;-68
2024/01/19 05:49:05;;;;;;;12.85;3.95;;;;;;;;;;4993605;28;20042;-68
2024/01/19 05:51:31;;;;;;;13.00;2.97;;;;;;;;;;4990463;28;20386;-69
2024/01/19 05:53:58;;;;;;;13.32;3.00;;;;;;;;;;4990072;28;20093;-68
2024/01/19 05:56:24;;;;;;;14.40;3.30;;;;;;;;;;4987743;28;20054;-69
2024/01/19 05:58:50;;;;;;;10.63;2.88;;;;;;;;;;4986023;28;20043;-68
2024/01/19 06:01:17;;;;;;;12.00;2.83;;;;;;;;;;4989092;28;20124;-68
2024/01/19 06:03:43;;;;;;;12.65;3.20;;;;;;;;;;4988334;28;20558;-68
2024/01/19 06:06:09;;;;;;;10.05;2.97;;;;;;;;;;4988648;28;20076;-68
2024/01/19 06:08:35;;;;;;;11.32;2.70;;;;;;;;;;4991673;28;20402;-68
2024/01/19 06:11:01;;;;;;;14.85;2.83;;;;;;;;;;4988963;28;20042;-68
2024/01/19 06:13:27;;;;;;;11.23;3.08;;;;;;;;;;4990567;28;20050;-68
2024/01/19 06:15:53;;;;;;;10.80;2.58;;;;;;;;;;4982419;28;20046;-68
2024/01/19 06:18:19;;;;;;;11.13;2.85;;;;;;;;;;5015362;28;20134;-68
2024/01/19 06:20:45;;;;;;;9.82;2.67;;;;;;;;;;5014145;28;20057;-69
2024/01/19 06:23:11;;;;;;;13.93;3.17;;;;;;;;;;5015167;28;20409;-68
2024/01/19 06:25:38;;;;;;;9.43;2.75;;;;;;;;;;4984337;28;20046;-68
2024/01/19 06:28:04;;;;;;;6.63;2.17;;;;;;;;;;4989553;28;20061;-68
2024/01/19 06:30:30;;;;;;;7.95;2.75;;;;;;;;;;4982791;28;20046;-69
2024/01/19 06:32:56;;;;;;;8.70;2.60;;;;;;;;;;4992465;28;20034;-68
2024/01/19 06:35:22;;;;;;;6.07;2.40;;;;;;;;;;4990096;28;20049;-68
2024/01/19 06:37:49;;;;;;;9.55;2.35;;;;;;;;;;5020638;28;20042;-68
2024/01/19 06:40:15;;;;;;;9.25;2.67;;;;;;;;;;4986694;28;20065;-68
2024/01/19 06:42:41;;;;;;;9.07;2.50;;;;;;;;;;4988862;28;20046;-68
2024/01/19 06:45:07;;;;;;;11.38;4.20;;;;;;;;;;4989738;28;20050;-68
2024/01/19 06:47:33;;;;;;;11.35;3.40;;;;;;;;;;4988718;28;20080;-68
2024/01/19 06:49:59;;;;;;;6.60;2.10;;;;;;;;;;4986337;28;20078;-68
2024/01/19 06:52:25;;;;;;;9.13;2.97;;;;;;;;;;4985425;28;20046;-68
2024/01/19 06:54:51;;;;;;;9.88;2.90;;;;;;;;;;4980645;28;20380;-68
2024/01/19 06:57:17;;;;;;;10.27;2.97;;;;;;;;;;4979584;28;20054;-69
2024/01/19 06:59:43;;;;;;;11.43;3.17;;;;;;;;;;4981244;28;20073;-68
2024/01/19 07:02:09;;;;;;;11.65;2.60;;;;;;;;;;4985915;28;20464;-68
2024/01/19 07:04:35;;;;;;;13.23;3.33;;;;;;;;;;4986949;28;20042;-68
2024/01/19 07:07:01;;;;;;;11.93;3.13;;;;;;;;;;4987892;28;20053;-68
2024/01/19 07:09:28;;;;;;;12.45;2.45;;;;;;;;;;4984777;28;20501;-68
2024/01/19 07:11:54;;;;;;;9.63;2.70;;;;;;;;;;5022067;28;20046;-68
2024/01/19 07:14:20;;;;;;;14.10;3.42;;;;;;;;;;5016694;28;20137;-68
2024/01/19 07:16:46;;;;;;;10.63;3.08;;;;;;;;;;5013063;28;20042;-68
2024/01/19 07:19:12;;;;;;;8.70;3.03;;;;;;;;;;5009714;28;20065;-68
2024/01/19 07:21:38;;;;;;;9.10;3.22;;;;;;;;;;4987592;28;20088;-68
2024/01/19 07:24:05;;;;;;;9.73;3.10;;;;;;;;;;4980787;28;20054;-68
2024/01/19 07:26:31;;;;;;;11.15;3.10;;;;;;;;;;4982377;28;20137;-68
2024/01/19 07:28:58;;;;;;;12.65;3.03;;;;;;;;;;5018650;28;20054;-68
2024/01/19 07:31:24;;;;;;;12.45;3.25;;;;;;;;;;5022198;28;20052;-68
2024/01/19 07:33:50;;;;;;;15.95;3.42;;;;;;;;;;5017862;28;20046;-68
2024/01/19 07:36:16;;;;;;;9.93;3.40;;;;;;;;;;4985376;28;20449;-68
2024/01/19 07:38:42;;;;;;;9.38;3.40;;;;;;;;;;5014758;28;20045;-68
2024/01/19 07:41:08;;;;;;;13.35;3.33;;;;;;;;;;4990189;28;20483;-68
2024/01/19 07:43:35;;;;;;;17.60;3.25;;;;;;;;;;4991482;28;20053;-68
2024/01/19 07:46:01;;;;;;;13.38;3.25;;;;;;;;;;4983600;28;20038;-68
2024/01/19 07:48:27;;;;;;;10.27;2.25;;;;;;;;;;4998789;28;20100;-68
2024/01/19 07:50:53;;;;;;;16.38;2.92;;;;;;;;;;4997419;28;20042;-68
2024/01/19 07:53:39;;;;;;;10.80;3.25;;;;;;;;;;4983558;28;20509;-68
2024/01/19 07:56:06;;;;;;;10.48;2.65;;;;;;;;;;5003064;28;20505;-68
2024/01/19 07:58:32;;;;;;;14.80;3.50;;;;;;;;;;4987603;28;20038;-68
2024/01/19 08:00:58;;;;;;;9.43;2.92;;;;;;;;;;4990277;28;20045;-68
2024/01/19 08:03:25;;;;;;;12.45;2.80;;;;;;;;;;5014359;28;20046;-69
2024/01/19 08:05:51;;;;;;;17.92;3.58;;;;;;;;;;4981355;28;20053;-68
2024/01/19 08:08:17;;;;;;;13.23;2.90;;;;;;;;;;5022248;28;20345;-69
2024/01/19 08:10:43;;;;;;;13.50;3.25;;;;;;;;;;4984778;28;20046;-67
2024/01/19 08:13:14;;;;;;;11.70;3.22;;;;;;;;;;4984863;28;20050;-67
2024/01/19 08:15:40;;;;;;;13.38;3.00;;;;;;;;;;4985187;28;20042;-67
2024/01/19 08:18:06;;;;;;;15.57;3.63;;;;;;;;;;4986860;28;20403;-67
2024/01/19 08:20:32;;;;;;;12.65;3.58;;;;;;;;;;4988716;28;20050;-67
2024/01/19 08:22:59;;;;;;;13.50;3.45;;;;;;;;;;4986174;28;20121;-67
2024/01/19 08:25:25;;;;;;;8.93;3.22;;;;;;;;;;4986352;28;20367;-67
2024/01/19 08:27:51;;;;;;;10.93;3.10;;;;;;;;;;4985047;28;20038;-67
2024/01/19 08:30:19;;;;;;;13.85;3.42;;;;;;;;;;4987161;28;20057;-67
2024/01/19 08:32:45;;;;;;;17.23;4.03;;;;;;;;;;5017666;28;20148;-68
2024/01/19 08:35:11;;;;;;;14.00;3.03;;;;;;;;;;4986558;28;20054;-67
2024/01/19 08:37:38;;;;;;;5.50;2.83;;;;;;;;;;4988954;28;20054;-67
2024/01/19 08:40:13;;;;;;;8.00;2.55;;;;;;;;;;4987529;28;20540;-66
2024/01/19 08:42:39;;;;;;;11.38;3.08;;;;;;;;;;4989068;28;20356;-66
2024/01/19 08:45:06;;;;;;;8.75;2.92;;;;;;;;;;4984460;28;20441;-66
2024/01/19 08:47:32;;;;;;;10.57;2.90;;;;;;;;;;4990941;28;20169;-67
2024/01/19 08:50:02;;;;;;;11.73;2.88;;;;;;;;;;4992594;28;20093;-67
2024/01/19 08:52:29;;;;;;;11.23;2.70;;;;;;;;;;4991667;28;20078;-67
2024/01/19 08:54:55;;;;;;;13.15;3.30;;;;;;;;;;4987949;28;20074;-67
2024/01/19 08:57:21;;;;;;;11.95;3.47;;;;;;;;;;4991962;28;20509;-67
2024/01/19 08:59:47;;;;;;;7.78;2.80;;;;;;;;;;4984660;28;20054;-67
2024/01/19 09:02:13;;;;;;;14.40;3.67;;;;;;;;;;4985944;28;20108;-67
2024/01/19 09:04:39;;;;;;;8.13;3.17;;;;;;;;;;4989913;28;20082;-67
2024/01/19 09:07:06;;;;;;;11.55;2.83;;;;;;;;;;4989590;28;20169;-67
2024/01/19 09:09:32;;;;;;;14.35;3.00;;;;;;;;;;4987458;28;20870;-67
2024/01/19 09:11:58;;;;;;;7.93;2.80;;;;;;;;;;4991692;28;20595;-67
2024/01/19 09:14:26;;;;;;;12.23;3.30;;;;;;;;;;4987032;28;20082;-67
2024/01/19 09:16:52;;;;;;;10.05;3.00;;;;;;;;;;4986180;28;20046;-67
2024/01/19 09:19:18;;;;;;;13.20;3.17;;;;;;;;;;4988348;28;20042;-67
2024/01/19 09:21:44;;;;;;;11.82;3.00;;;;;;;;;;4991615;28;20450;-67
2024/01/19 09:24:11;;;;;;;12.90;2.90;;;;;;;;;;4990433;28;20077;-67
2024/01/19 09:26:37;;;;;;;9.45;2.70;;;;;;;;;;4989091;28;20038;-67
2024/01/19 09:29:04;;;;;;;10.13;3.08;;;;;;;;;;4988422;28;20133;-68
2024/01/19 09:31:30;;;;;;;7.68;3.00;;;;;;;;;;4988779;28;20054;-69
2024/01/19 09:33:56;;;;;;;10.43;3.05;;;;;;;;;;4991600;28;20104;-69
2024/01/19 09:36:22;;;;;;;9.57;2.75;;;;;;;;;;4988304;28;20380;-69
2024/01/19 09:38:48;;;;;;;7.57;2.92;;;;;;;;;;4992637;28;20038;-69
2024/01/19 09:41:29;;;;;;;11.10;3.67;;;;;;;;;;4990124;28;20101;-69
2024/01/19 09:43:56;;;;;;;11.13;3.20;;;;;;;;;;4985722;28;20133;-69
2024/01/19 09:46:27;;;;;;;5.38;2.35;;;;;;;;;;4989964;28;20042;-69
2024/01/19 09:49:02;;;;;;;8.40;2.65;;;;;;;;;;4991330;28;20057;-69
2024/01/19 09:51:33;;;;;;;7.80;2.63;;;;;;;;;;4986199;28;20133;-69
2024/01/19 09:54:04;;;;;;;11.82;2.88;;;;;;;;;;4987439;28;20046;-69
2024/01/19 09:56:30;;;;;;;8.82;2.42;;;;;;;;;;4990008;28;20054;-69
2024/01/19 09:58:56;;;;;;;8.25;2.40;;;;;;;;;;4985800;28;20047;-69
2024/01/19 10:01:22;;;;;;;8.77;2.25;;;;;;;;;;4989818;28;20092;-69
2024/01/19 10:03:49;;;;;;;9.65;2.75;;;;;;;;;;4991555;28;20051;-69
2024/01/19 10:06:15;;;;;;;10.90;2.40;;;;;;;;;;4989014;28;20498;-69
2024/01/19 10:08:42;;;;;;;11.43;2.90;;;;;;;;;;4986716;28;20108;-69
2024/01/19 10:11:09;;;;;;;13.20;3.00;;;;;;;;;;4989001;28;20061;-70
2024/01/19 10:13:35;;;;;;;3.70;2.05;;;;;;;;;;4989678;28;20096;-69
2024/01/19 10:16:01;;;;;;;12.13;2.50;;;;;;;;;;4987323;28;20043;-69
2024/01/19 10:18:27;;;;;;;6.82;2.63;;;;;;;;;;4989674;28;20141;-69
2024/01/19 10:20:54;;;;;;;10.52;2.85;;;;;;;;;;4989689;28;20042;-70
2024/01/19 10:23:23;;;;;;;7.93;2.42;;;;;;;;;;4986758;28;20066;-69
2024/01/19 10:25:53;;;;;;;5.63;2.42;;;;;;;;;;4988090;28;20755;-69
2024/01/19 10:28:29;;;;;;;9.35;2.50;;;;;;;;;;4990077;28;20465;-69
2024/01/19 10:31:12;;;;;;;11.23;2.92;;;;;;;;;;4984691;28;20125;-69
2024/01/19 10:33:39;;;;;;;10.15;2.83;;;;;;;;;;4989476;28;20038;-69
2024/01/19 10:36:05;;;;;;;12.32;3.50;;;;;;;;;;4989549;28;20526;-69
2024/01/19 10:38:31;;;;;;;8.07;3.05;;;;;;;;;;5020634;28;20120;-69
2024/01/19 10:40:57;;;;;;;10.52;3.55;;;;;;;;;;4988951;28;20522;-69
2024/01/19 10:43:23;;;;;;;7.47;3.00;;;;;;;;;;4988562;28;20049;-69
2024/01/19 10:45:49;;;;;;;8.63;2.80;;;;;;;;;;4982602;28;20533;-69
2024/01/19 10:48:26;;;;;;;12.60;2.92;;;;;;;;;;4990812;28;20074;-69
2024/01/19 10:51:01;;;;;;;15.77;6.20;;;;;;;;;;4990077;28;20050;-69
2024/01/19 10:53:27;;;;;;;12.52;3.75;;;;;;;;;;4987049;28;20042;-69
2024/01/19 10:55:53;;;;;;;13.57;3.58;;;;;;;;;;4987137;28;20057;-69
2024/01/19 10:58:19;;;;;;;8.25;2.40;;;;;;;;;;4988593;28;20508;-69
2024/01/19 11:00:45;;;;;;;7.03;2.85;;;;;;;;;;4987889;28;20046;-69
2024/01/19 11:03:11;;;;;;;10.23;3.72;;;;;;;;;;4990418;28;20077;-70
2024/01/19 11:05:37;;;;;;;10.23;2.92;;;;;;;;;;4985293;28;20046;-69
2024/01/19 11:08:04;;;;;;;15.48;2.97;;;;;;;;;;4984084;28;20050;-69
2024/01/19 11:10:30;;;;;;;9.48;3.03;;;;;;;;;;4986149;28;20057;-70
2024/01/19 11:12:58;;;;;;;6.15;2.60;;;;;;;;;;4986101;28;20049;-69
2024/01/19 11:15:28;;;;;;;8.80;3.25;;;;;;;;;;4987265;28;20054;-69
2024/01/19 11:18:01;;;;;;;13.70;3.30;;;;;;;;;;4982625;28;20136;-67
2024/01/19 11:20:29;;;;;;;8.52;2.83;;;;;;;;;;4983089;28;20513;-66
2024/01/19 11:22:55;;;;;;;9.43;2.95;;;;;;;;;;4981942;28;20054;-67
2024/01/19 11:25:29;;;;;;;10.77;2.92;;;;;;;;;;4983777;28;20427;-67
2024/01/19 11:28:06;;;;;;;7.15;2.35;;;;;;;;;;4988019;28;20125;-66
2024/01/19 11:30:39;;;;;;;15.38;3.25;;;;;;;;;;4983608;28;20042;-67
2024/01/19 11:33:20;;;;;;;12.13;2.80;;;;;;;;;;4986482;28;20062;-67
2024/01/19 11:35:48;;;;;;;10.77;2.70;;;;;;;;;;4984479;28;20491;-67
2024/01/19 11:38:33;;;;;;;9.23;3.08;;;;;;;;;;4988449;28;20056;-67
2024/01/19 11:41:02;;;;;;;12.85;3.40;;;;;;;;;;4989856;28;20070;-67
2024/01/19 11:43:39;;;;;;;10.70;3.53;;;;;;;;;;4981404;28;20164;-67
2024/01/19 11:46:05;;;;;;;11.50;3.05;;;;;;;;;;4984815;28;20501;-67
2024/01/19 11:48:44;;;;;;;11.05;3.00;;;;;;;;;;4980970;28;20557;-66
2024/01/19 11:51:31;;;;;;;8.82;3.30;;;;;;;;;;4987813;28;20430;-67
2024/01/19 11:54:01;;;;;;;11.70;2.80;;;;;;;;;;4982100;28;20046;-67
2024/01/19 11:56:27;;;;;;;9.75;2.60;;;;;;;;;;4983006;28;20180;-67
2024/01/19 11:58:54;;;;;;;9.18;2.28;;;;;;;;;;4986027;28;20051;-66
2024/01/19 12:01:20;;;;;;;15.13;2.75;;;;;;;;;;4983857;28;20050;-70
2024/01/19 12:03:51;;;;;;;7.57;2.72;;;;;;;;;;4981865;28;20105;-69
2024/01/19 12:06:17;;;;;;;8.88;2.50;;;;;;;;;;4989438;28;20068;-69
2024/01/19 12:08:43;;;;;;;8.90;2.35;;;;;;;;;;4988095;28;20038;-70
2024/01/19 12:11:10;;;;;;;4.78;3.05;;;;;;;;;;5016079;28;20094;-69
2024/01/19 12:13:38;;;;;;;14.55;2.90;;;;;;;;;;4985682;28;20501;-69
2024/01/19 12:16:04;;;;;;;14.15;2.72;;;;;;;;;;4988609;28;20115;-69
2024/01/19 12:18:32;;;;;;;5.57;2.10;;;;;;;;;;4984880;28;20054;-70
2024/01/19 12:20:58;;;;;;;8.63;3.13;;;;;;;;;;4988126;28;20101;-69
2024/01/19 12:23:24;;;;;;;11.10;2.22;;;;;;;;;;4986641;28;20082;-69
2024/01/19 12:25:58;;;;;;;8.57;2.45;;;;;;;;;;4988676;28;20057;-69
2024/01/19 12:28:25;;;;;;;7.63;2.50;;;;;;;;;;4991010;28;20058;-67
2024/01/19 12:30:52;;;;;;;13.10;3.40;;;;;;;;;;4990739;28;20058;-68
2024/01/19 12:33:24;;;;;;;5.22;3.00;;;;;;;;;;4989372;28;20180;-68
2024/01/19 12:36:01;;;;;;;8.07;2.95;;;;;;;;;;4997088;28;20517;-68
2024/01/19 12:38:27;;;;;;;9.25;2.85;;;;;;;;;;4990005;28;20053;-67
2024/01/19 12:40:57;;;;;;;10.70;2.60;;;;;;;;;;4999047;28;20039;-68
2024/01/19 12:43:23;;;;;;;9.57;2.88;;;;;;;;;;4990664;28;20129;-68
2024/01/19 12:45:49;;;;;;;7.70;3.20;;;;;;;;;;4985602;28;20052;-68
2024/01/19 12:48:15;;;;;;;14.20;3.70;;;;;;;;;;4990768;28;20046;-68
2024/01/19 12:50:41;;;;;;;9.32;3.17;;;;;;;;;;4988093;28;20049;-68
2024/01/19 12:53:07;;;;;;;11.45;3.08;;;;;;;;;;4988350;28;20056;-68
2024/01/19 12:55:33;;;;;;;8.70;3.65;;;;;;;;;;4995720;28;20482;-67
2024/01/19 12:58:00;;;;;;;13.02;4.07;;;;;;;;;;4995998;28;20175;-68
2024/01/19 13:00:27;;;;;;;12.45;4.25;;;;;;;;;;4992213;28;20143;-68
2024/01/19 13:02:54;;;;;;;10.40;3.70;;;;;;;;;;5017904;28;20042;-68
2024/01/19 13:05:20;;;;;;;11.73;4.32;;;;;;;;;;4983151;28;20050;-68
2024/01/19 13:07:47;;;;;;;6.75;3.60;;;;;;;;;;4992529;28;20395;-68
2024/01/19 13:10:20;;;;;;;9.60;3.58;;;;;;;;;;4992128;28;20490;-68
2024/01/19 13:12:47;;;;;;;11.52;3.75;;;;;;;;;;4987041;28;20053;-68
2024/01/19 13:15:17;;;;;;;9.73;3.83;;;;;;;;;;5020063;28;20050;-69
2024/01/19 13:17:44;;;;;;;9.80;3.60;;;;;;;;;;4982948;28;20046;-68
2024/01/19 13:20:11;;;;;;;10.57;4.03;;;;;;;;;;4991969;28;20052;-68
2024/01/19 13:22:40;;;;;;;12.05;4.55;;;;;;;;;;4987579;28;20038;-69
2024/01/19 13:25:09;;;;;;;7.85;3.40;;;;;;;;;;4989388;28;20073;-68
2024/01/19 13:27:35;;;;;;;9.65;3.42;;;;;;;;;;4993048;28;20046;-68
2024/01/19 13:30:03;;;;;;;11.75;4.10;;;;;;;;;;4991882;28;20046;-68
2024/01/19 13:32:29;;;;;;;8.52;3.83;;;;;;;;;;4983711;28;20134;-68
2024/01/19 13:34:55;;;;;;;13.43;3.95;;;;;;;;;;4992841;28;20038;-69
2024/01/19 13:37:21;;;;;;;6.78;3.25;;;;;;;;;;4985716;28;20051;-68
2024/01/19 13:39:48;;;;;;;5.65;3.10;;;;;;;;;;5021840;28;20402;-69
2024/01/19 13:42:14;;;;;;;7.18;3.50;;;;;;;;;;4991067;28;20108;-68
2024/01/19 13:44:40;;;;;;;10.38;3.35;;;;;;;;;;4995893;28;20042;-69
2024/01/19 13:47:06;;;;;;;12.82;3.60;;;;;;;;;;5016427;28;20047;-68
2024/01/19 13:49:35;;;;;;;7.53;3.05;;;;;;;;;;4992899;28;20047;-69
2024/01/19 13:52:01;;;;;;;10.52;3.30;;;;;;;;;;4995091;28;20057;-69
2024/01/19 13:54:27;;;;;;;10.18;3.40;;;;;;;;;;4997629;28;20184;-68
2024/01/19 13:56:53;;;;;;;10.20;3.55;;;;;;;;;;4994412;28;20129;-68
2024/01/19 13:59:19;;;;;;;9.02;3.50;;;;;;;;;;4994260;28;20100;-69
2024/01/19 14:01:46;;;;;;;9.32;3.88;;;;;;;;;;4992270;28;20042;-68
2024/01/19 14:04:15;;;;;;;9.68;3.55;;;;;;;;;;4988135;28;20046;-68
2024/01/19 14:06:42;;;;;;;11.52;3.83;;;;;;;;;;4992428;28;20244;-68
2024/01/19 14:09:09;;;;;;;9.05;3.70;;;;;;;;;;4991185;28;20050;-69
2024/01/19 14:11:35;;;;;;;9.48;3.70;;;;;;;;;;4987742;28;20058;-68
2024/01/19 14:14:02;;;;;;;8.10;3.30;;;;;;;;;;4991429;28;20449;-68
2024/01/19 14:16:28;;;;;;;8.57;3.55;;;;;;;;;;4987961;28;20054;-68
2024/01/19 14:18:54;;;;;;;10.48;3.65;;;;;;;;;;5020552;28;20046;-68
2024/01/19 14:21:20;;;;;;;11.00;3.20;;;;;;;;;;5018916;28;20069;-68
2024/01/19 14:23:46;;;;;;;10.90;3.67;;;;;;;;;;4989108;28;20058;-68
2024/01/19 14:26:13;;;;;;;13.50;3.60;;;;;;;;;;4989854;28;20061;-68
2024/01/19 14:28:40;;;;;;;14.68;3.50;;;;;;;;;;4990744;28;20050;-68
2024/01/19 14:31:07;;;;;;;10.50;3.53;;;;;;;;;;4986740;28;20117;-68
2024/01/19 14:33:33;;;;;;;11.18;4.10;;;;;;;;;;4988679;28;20550;-68
2024/01/19 14:35:59;;;;;;;12.40;4.18;;;;;;;;;;4990250;28;20129;-69